Terminal Aerodrome Forecast (TAF)

TAF

Data at: 0405 UTC 23 Apr 2019

TAF for:NVSC (Sola/Vanua Lava Arpt, --, NV) issued at 2220 UTC 22 Apr 2019
Text:TAF NVSC 222220Z 2300/2324 VRB02KT 9999 FEW020 SCT040
Forecast period:0000 UTC 23 April 2019 to 0000 UTC 24 April 2019
Forecast type:FROM: standard forecast or significant change
Winds:variable direction winds at 2 MPH (2 knots; 1.0 m/s)
Visibility:6 or more sm (10+ km)
Ceiling:at least 12,000 feet AGL
Clouds: few clouds at 2000 feet AGL, scattered clouds at 4000 feet AGL
Text:PROB30 INTER 2300/2306 9000 -SHRA BKN018
Forecast period:0000 to 0600 UTC 23 April 2019
Forecast type:TEMPORARY: The following changes expected for less than half the time period
Visibility: 6 sm ( 9 km)
Ceiling:1800 feet AGL
Clouds: broken clouds at 1800 feet AGL
Weather:-SHRA (light rain showers)

TAF

Data at: 0405 UTC 23 Apr 2019

TAF for:NVSG (Longana Arpt, --, NV) issued at 2220 UTC 22 Apr 2019
Text:TAF NVSG 222220Z 2300/2324 VRB02KT 9999 SCT020 BKN040
Forecast period:0000 UTC 23 April 2019 to 0000 UTC 24 April 2019
Forecast type:FROM: standard forecast or significant change
Winds:variable direction winds at 2 MPH (2 knots; 1.0 m/s)
Visibility:6 or more sm (10+ km)
Ceiling:4000 feet AGL
Clouds: scattered clouds at 2000 feet AGL, broken clouds at 4000 feet AGL
Text:PROB30 INTER 2300/2306 9000 -SHRA BKN018
Forecast period:0000 to 0600 UTC 23 April 2019
Forecast type:TEMPORARY: The following changes expected for less than half the time period
Visibility: 6 sm ( 9 km)
Ceiling:1800 feet AGL
Clouds: broken clouds at 1800 feet AGL
Weather:-SHRA (light rain showers)

TAF

Data at: 0405 UTC 23 Apr 2019

TAF for:NVSS (Santo/Pekoa Intl, --, NV) issued at 2220 UTC 22 Apr 2019
Text:TAF NVSS 222220Z 2300/2324 VRB03KT 9999 FEW025
Forecast period:0000 UTC 23 April 2019 to 0000 UTC 24 April 2019
Forecast type:FROM: standard forecast or significant change
Winds:variable direction winds at 3 MPH (3 knots; 1.5 m/s)
Visibility:6 or more sm (10+ km)
Ceiling:at least 12,000 feet AGL
Clouds: few clouds at 2500 feet AGL

TAF

Data at: 0405 UTC 23 Apr 2019

TAF for:NVSL (Malekula/Lamap, --, NV) issued at 2220 UTC 22 Apr 2019
Text:TAF NVSL 222220Z 2300/2324 VRB02KT 9999 SCT020
Forecast period:0000 UTC 23 April 2019 to 0000 UTC 24 April 2019
Forecast type:FROM: standard forecast or significant change
Winds:variable direction winds at 2 MPH (2 knots; 1.0 m/s)
Visibility:6 or more sm (10+ km)
Ceiling:at least 12,000 feet AGL
Clouds: scattered clouds at 2000 feet AGL

TAF

Data at: 0405 UTC 23 Apr 2019

TAF for:NVSP (Norsup Arpt, --, NV) issued at 2220 UTC 22 Apr 2019
Text:TAF NVSP 222220Z 2300/2324 VRB02KT 9999 FEW020
Forecast period:0000 UTC 23 April 2019 to 0000 UTC 24 April 2019
Forecast type:FROM: standard forecast or significant change
Winds:variable direction winds at 2 MPH (2 knots; 1.0 m/s)
Visibility:6 or more sm (10+ km)
Ceiling:at least 12,000 feet AGL
Clouds: few clouds at 2000 feet AGL

TAF

Data at: 0405 UTC 23 Apr 2019

TAF for:NVVV (Efate/Bauerfield Int, --, NV) issued at 2220 UTC 22 Apr 2019
Text:TAF NVVV 222220Z 2300/2324 VRB02KT 9999 SCT020
Forecast period:0000 UTC 23 April 2019 to 0000 UTC 24 April 2019
Forecast type:FROM: standard forecast or significant change
Winds:variable direction winds at 2 MPH (2 knots; 1.0 m/s)
Visibility:6 or more sm (10+ km)
Ceiling:at least 12,000 feet AGL
Clouds: scattered clouds at 2000 feet AGL
Text:PROB30 INTER 2300/2306 9000 -SHRA BKN018
Forecast period:0000 to 0600 UTC 23 April 2019
Forecast type:TEMPORARY: The following changes expected for less than half the time period
Visibility: 6 sm ( 9 km)
Ceiling:1800 feet AGL
Clouds: broken clouds at 1800 feet AGL
Weather:-SHRA (light rain showers)

TAF

Data at: 0405 UTC 23 Apr 2019

TAF for:NVVW (Tanna Arpt, --, NV) issued at 2220 UTC 22 Apr 2019
Text:TAF NVVW 222220Z 2300/2324 10010KT 9999 BKN022 INTER 2300/2306 9000 -SHRA BKN018
Forecast period:0000 UTC 23 April 2019 to 0000 UTC 24 April 2019
Forecast type:FROM: standard forecast or significant change
Winds:from the E (100 degrees) at 12 MPH (10 knots; 5.1 m/s)
Visibility:6 or more sm (10+ km)
Ceiling:2200 feet AGL
Clouds: broken clouds at 2200 feet AGL
Text:
Forecast period:0000 to 0600 UTC 23 April 2019
Forecast type:TEMPORARY: The following changes expected for less than half the time period
Visibility: 6 sm ( 9 km)
Ceiling:1800 feet AGL
Clouds: broken clouds at 1800 feet AGL
Weather:-SHRA (light rain showers)

TAF

Data at: 0405 UTC 23 Apr 2019

TAF for:NVVA (Aneityum/Mystery Isl, --, NV) issued at 2220 UTC 22 Apr 2019
Text:TAF NVVA 222220Z 2300/2324 13005KT 9999 SCT025 INTER 2300/2306 9000 -SHRA BKN018
Forecast period:0000 UTC 23 April 2019 to 0000 UTC 24 April 2019
Forecast type:FROM: standard forecast or significant change
Winds:from the SE (130 degrees) at 6 MPH (5 knots; 2.6 m/s)
Visibility:6 or more sm (10+ km)
Ceiling:at least 12,000 feet AGL
Clouds: scattered clouds at 2500 feet AGL
Text:
Forecast period:0000 to 0600 UTC 23 April 2019
Forecast type:TEMPORARY: The following changes expected for less than half the time period
Visibility: 6 sm ( 9 km)
Ceiling:1800 feet AGL
Clouds: broken clouds at 1800 feet AGL
Weather:-SHRA (light rain showers)

TAF

Data at: 0405 UTC 23 Apr 2019

TAF NVVV 222220Z 2300/2324 VRB02KT 9999 SCT020
  PROB30 INTER 2300/2306 9000 -SHRA BKN018
TAF NVSC 222220Z 2300/2324 VRB02KT 9999 FEW020 SCT040
  PROB30 INTER 2300/2306 9000 -SHRA BKN018
TAF NVSG 222220Z 2300/2324 VRB02KT 9999 SCT020 BKN040
  PROB30 INTER 2300/2306 9000 -SHRA BKN018
TAF NVSS 222220Z 2300/2324 VRB03KT 9999 FEW025
TAF NVSL 222220Z 2300/2324 VRB02KT 9999 SCT020
TAF NVSP 222220Z 2300/2324 VRB02KT 9999 FEW020
TAF NVVW 222220Z 2300/2324 10010KT 9999 BKN022 INTER 2300/2306 9000 -SHRA BKN018
TAF NVVA 222220Z 2300/2324 13005KT 9999 SCT025 INTER 2300/2306 9000 -SHRA BKN018